createdAt,value
2018-12-06T00:01:33.855Z,45.40
2018-12-06T00:07:02.913Z,45.50
2018-12-06T00:09:31.404Z,45.40
2018-12-06T00:11:59.771Z,45.50
2018-12-06T00:14:32.332Z,45.70
2018-12-06T00:17:02.951Z,45.70
2018-12-06T00:19:31.575Z,45.60
2018-12-06T00:21:59.964Z,45.30
2018-12-06T00:27:29.018Z,44.90
2018-12-06T00:30:08.606Z,45.10
2018-12-06T00:35:37.773Z,45.00
2018-12-06T00:38:12.503Z,45.00
2018-12-06T00:40:44.424Z,44.60
2018-12-06T00:43:30.907Z,44.90
2018-12-06T00:46:11.128Z,45.10
2018-12-06T00:48:45.022Z,45.60
2018-12-06T00:51:17.297Z,46.00
2018-12-06T00:53:48.806Z,45.70
2018-12-06T00:56:22.698Z,46.10
2018-12-06T00:58:55.164Z,46.10
2018-12-06T01:01:25.357Z,46.20
2018-12-06T01:03:56.141Z,46.40
2018-12-06T01:06:30.376Z,46.50
2018-12-06T01:09:02.520Z,46.80
2018-12-06T01:11:36.291Z,47.40
2018-12-06T01:14:11.456Z,47.30
2018-12-06T01:19:17.888Z,47.10
2018-12-06T01:21:48.057Z,46.80
2018-12-06T01:27:16.860Z,47.80
2018-12-06T01:29:46.192Z,48.00
2018-12-06T01:37:43.906Z,46.50
2018-12-06T01:40:20.354Z,46.40
2018-12-06T01:42:48.920Z,46.50
2018-12-06T01:45:17.505Z,46.70
2018-12-06T01:47:45.734Z,46.70
2018-12-06T01:50:13.953Z,46.40
2018-12-06T01:55:42.331Z,46.50
2018-12-06T01:58:16.999Z,47.20
2018-12-06T02:00:51.280Z,47.40
2018-12-06T04:50:19.695Z,54.10
2018-12-06T04:52:54.842Z,54.60
2018-12-06T04:55:28.995Z,54.10
2018-12-06T04:58:03.281Z,53.50
2018-12-06T05:00:35.222Z,53.60
2018-12-06T05:03:03.711Z,52.80
2018-12-06T05:08:32.484Z,51.90
2018-12-06T05:11:00.807Z,52.00
2018-12-06T05:13:29.077Z,51.40
2018-12-06T05:18:57.944Z,51.30
2018-12-06T05:21:26.883Z,51.30
2018-12-06T05:23:55.448Z,51.00
2018-12-06T05:29:24.168Z,51.50
2018-12-06T05:31:52.434Z,51.50
2018-12-06T05:34:20.681Z,51.50
2018-12-06T05:39:49.234Z,50.80
2018-12-06T05:42:17.911Z,50.70
2018-12-06T05:47:46.948Z,51.20
2018-12-06T05:50:15.247Z,51.30
2018-12-06T05:52:43.486Z,51.40
2018-12-06T05:58:12.146Z,51.20
2018-12-06T06:00:40.751Z,51.50
2018-12-06T06:03:09.143Z,51.80
2018-12-06T06:08:34.148Z,52.20
2018-12-06T06:11:08.531Z,52.20
2018-12-06T06:13:40.539Z,52.30
2018-12-06T06:16:16.186Z,52.40
2018-12-06T06:18:50.732Z,52.30
2018-12-06T06:21:25.255Z,52.40
2018-12-06T06:23:53.808Z,52.40
2018-12-06T06:29:26.890Z,53.00
2018-12-06T06:31:55.893Z,53.40
2018-12-06T06:34:24.549Z,53.80
2018-12-06T06:39:53.392Z,54.90
2018-12-06T06:42:21.631Z,55.60
2018-12-06T06:47:50.166Z,55.90
2018-12-06T06:50:18.650Z,56.20
2018-12-06T06:52:47.637Z,56.60
2018-12-06T06:58:16.242Z,56.20
2018-12-06T07:00:44.592Z,56.10
2018-12-06T07:03:13.006Z,56.60
2018-12-06T07:08:42.907Z,56.70
2018-12-06T07:11:11.627Z,56.10
2018-12-06T07:13:40.150Z,55.90
2018-12-06T07:19:08.904Z,55.00
2018-12-06T07:21:37.197Z,54.90
2018-12-06T07:24:05.524Z,55.10
2018-12-06T07:29:27.229Z,54.40
2018-12-06T07:31:55.960Z,54.30
2018-12-06T07:34:24.540Z,54.40
2018-12-06T07:39:52.924Z,54.00
2018-12-06T07:42:21.241Z,53.60
2018-12-06T07:44:49.860Z,53.60
2018-12-06T07:50:11.306Z,53.40
2018-12-06T07:52:39.691Z,53.10
2018-12-06T07:58:09.364Z,53.20
2018-12-06T08:00:37.666Z,53.30
2018-12-06T08:03:05.964Z,53.50
2018-12-06T08:08:34.903Z,52.50
2018-12-06T08:11:03.634Z,52.40
2018-12-06T08:13:33.054Z,52.90
2018-12-06T08:19:01.684Z,52.60
2018-12-06T08:21:30.082Z,52.60
2018-12-06T08:23:58.531Z,52.60
2018-12-06T08:29:27.144Z,52.10
2018-12-06T08:31:55.841Z,51.90
2018-12-06T08:34:24.235Z,51.80
2018-12-06T08:39:53.123Z,52.70
2018-12-06T08:42:21.674Z,52.70
2018-12-06T08:44:50.182Z,53.40
2018-12-06T08:50:19.255Z,53.90
2018-12-06T08:52:47.985Z,53.80
2018-12-06T08:55:17.179Z,53.80
2018-12-06T09:00:45.890Z,54.00
2018-12-06T09:03:14.224Z,54.20
2018-12-06T09:10:43.332Z,53.30
2018-12-06T09:13:11.885Z,52.80
2018-12-06T09:18:43.151Z,53.00
2018-12-06T09:21:12.287Z,53.30
2018-12-06T09:23:40.605Z,53.30
2018-12-06T09:29:10.331Z,53.00
2018-12-06T09:31:38.649Z,52.80
2018-12-06T09:37:07.068Z,52.80
2018-12-06T09:39:35.429Z,52.40
2018-12-06T09:42:04.636Z,52.00
2018-12-06T09:47:25.730Z,52.10
2018-12-06T09:49:54.090Z,51.90
2018-12-06T09:52:22.363Z,51.90
2018-12-06T09:57:51.104Z,52.30
2018-12-06T10:00:20.883Z,52.20
2018-12-06T10:02:50.340Z,52.10
2018-12-06T10:05:20.108Z,52.30
2018-12-06T10:07:48.658Z,52.60
2018-12-06T10:10:17.032Z,52.70
2018-12-06T10:12:45.650Z,52.90
2018-12-06T10:18:07.141Z,52.30
2018-12-06T10:20:35.477Z,52.80
2018-12-06T10:23:12.672Z,53.20
2018-12-06T10:25:46.585Z,53.30
2018-12-06T10:28:19.116Z,53.70
2018-12-06T10:30:50.611Z,53.60
2018-12-06T10:33:22.833Z,53.50
2018-12-06T10:35:55.871Z,53.50
2018-12-06T10:38:30.270Z,52.30
2018-12-06T10:41:03.200Z,53.20
2018-12-06T10:49:44.241Z,52.30
2018-12-06T10:52:16.170Z,50.90
2018-12-06T10:57:39.679Z,50.00
2018-12-06T11:00:13.781Z,50.80
2018-12-06T11:02:48.969Z,50.90
2018-12-06T11:05:21.437Z,50.60
2018-12-06T11:07:53.757Z,50.90
2018-12-06T11:10:27.707Z,50.80
2018-12-06T11:12:59.949Z,51.10
2018-12-06T11:15:33.800Z,51.30
2018-12-06T11:18:07.746Z,51.50
2018-12-06T11:20:40.225Z,51.20
2018-12-06T11:23:14.618Z,51.10
2018-12-06T11:25:46.661Z,50.50
2018-12-06T11:28:20.523Z,50.10
2018-12-06T11:30:54.767Z,50.30
2018-12-06T11:33:26.650Z,50.20
2018-12-06T11:35:58.063Z,50.40
2018-12-06T11:38:34.538Z,50.60
2018-12-06T11:41:06.028Z,51.20
2018-12-06T11:46:20.311Z,50.70
2018-12-06T11:48:52.809Z,50.10
2018-12-06T11:51:26.766Z,49.50
2018-12-06T11:54:00.875Z,50.10
2018-12-06T11:56:35.398Z,49.70
2018-12-06T12:01:36.431Z,49.40
2018-12-06T12:04:12.657Z,49.40
2018-12-06T12:06:49.722Z,50.00
2018-12-06T12:09:24.668Z,50.30
2018-12-06T12:11:56.754Z,50.10
2018-12-06T12:14:31.450Z,49.60
2018-12-06T12:17:11.142Z,49.30
2018-12-06T12:19:45.258Z,49.40
2018-12-06T12:22:26.936Z,49.90
2018-12-06T12:24:55.482Z,49.40
2018-12-06T12:27:23.772Z,49.50
2018-12-06T12:29:52.062Z,49.00
2018-12-06T12:32:20.374Z,48.60
2018-12-06T12:37:49.496Z,48.30
2018-12-06T12:40:18.753Z,48.30
2018-12-06T12:42:47.385Z,48.20
2018-12-06T12:45:16.340Z,48.90
2018-12-06T12:47:44.659Z,49.30
2018-12-06T12:50:13.020Z,49.70
2018-12-06T12:52:42.056Z,49.40
2018-12-06T12:58:11.080Z,48.40
2018-12-06T13:00:39.570Z,49.80
2018-12-06T13:03:07.869Z,50.60
2018-12-06T13:08:28.923Z,54.40
2018-12-06T13:10:57.443Z,56.30
2018-12-06T13:13:25.924Z,57.10
2018-12-06T13:18:47.200Z,56.50
2018-12-06T13:21:15.828Z,56.00
2018-12-06T13:23:44.117Z,55.80
2018-12-06T13:29:12.312Z,56.30
2018-12-06T13:31:40.583Z,56.80
2018-12-06T13:37:09.976Z,56.60
2018-12-06T13:39:38.270Z,55.90
2018-12-06T13:42:07.257Z,55.50
2018-12-06T13:47:35.596Z,56.10
2018-12-06T13:50:04.640Z,55.30
2018-12-06T13:52:33.288Z,55.40
2018-12-06T13:57:54.113Z,55.00
2018-12-06T14:00:22.582Z,55.30
2018-12-06T14:02:51.061Z,54.90
2018-12-06T14:08:20.689Z,55.00
2018-12-06T14:10:49.488Z,55.70
2018-12-06T14:13:23.633Z,55.90
2018-12-06T14:18:40.980Z,56.90
2018-12-06T14:21:09.262Z,56.10
2018-12-06T14:23:37.510Z,56.50
2018-12-06T14:28:58.360Z,56.80
2018-12-06T14:31:27.238Z,57.60
2018-12-06T14:33:56.746Z,58.10
2018-12-06T14:39:26.522Z,58.30
2018-12-06T14:41:54.941Z,57.60
2018-12-06T14:44:23.319Z,56.90
2018-12-06T14:49:51.592Z,56.70
2018-12-06T14:52:20.920Z,56.90
2018-12-06T14:57:49.490Z,56.00
2018-12-06T15:00:17.838Z,54.90
2018-12-06T15:02:46.152Z,54.50
2018-12-06T15:08:15.114Z,55.30
2018-12-06T15:10:43.347Z,56.30
2018-12-06T15:13:18.221Z,57.30
2018-12-06T15:15:47.992Z,56.80
2018-12-06T15:18:20.312Z,57.30
2018-12-06T15:20:55.611Z,57.70
2018-12-06T15:23:27.585Z,57.60
2018-12-06T15:25:59.303Z,58.00
2018-12-06T15:28:27.618Z,57.50
2018-12-06T15:30:55.974Z,57.70
2018-12-06T15:33:24.198Z,57.50
2018-12-06T15:38:53.271Z,56.80
2018-12-06T15:41:21.555Z,56.00
2018-12-06T15:43:50.215Z,56.10
2018-12-06T15:49:19.603Z,56.60
2018-12-06T15:51:48.060Z,56.70
2018-12-06T15:54:16.305Z,56.60
2018-12-06T15:59:44.847Z,57.20
2018-12-06T16:02:13.073Z,56.40
2018-12-06T16:04:41.602Z,56.90
2018-12-06T16:10:11.551Z,55.60
2018-12-06T16:12:40.846Z,55.70
2018-12-06T16:18:03.097Z,55.50
2018-12-06T16:20:31.359Z,55.50
2018-12-06T16:22:59.596Z,55.70
2018-12-06T16:28:28.056Z,54.70
2018-12-06T16:30:56.980Z,55.10
2018-12-06T16:33:26.273Z,54.70
2018-12-06T16:38:55.154Z,54.70
2018-12-06T16:41:23.382Z,54.60
2018-12-06T16:43:51.682Z,54.40
2018-12-06T16:49:20.887Z,54.30
2018-12-06T16:51:49.881Z,54.20
2018-12-06T16:54:18.907Z,54.40
2018-12-06T16:59:48.589Z,55.50
2018-12-06T17:02:16.865Z,54.80
2018-12-06T17:04:45.087Z,54.60
2018-12-06T17:10:07.035Z,54.90
2018-12-06T17:12:35.677Z,55.80
2018-12-06T17:15:04.527Z,56.00
2018-12-06T17:20:34.264Z,54.90
2018-12-06T17:23:03.346Z,54.30
2018-12-06T17:28:31.789Z,53.20
2018-12-06T17:31:00.125Z,53.00
2018-12-06T17:33:28.373Z,52.70
2018-12-06T17:38:57.767Z,52.20
2018-12-06T17:41:26.626Z,52.20
2018-12-06T17:43:55.880Z,52.30
2018-12-06T17:49:17.708Z,52.10
2018-12-06T17:51:45.986Z,51.80
2018-12-06T17:54:17.835Z,51.50
2018-12-06T17:56:52.366Z,51.40
2018-12-06T17:59:26.521Z,51.30
2018-12-06T18:01:57.944Z,51.10
2018-12-06T18:04:26.632Z,51.00
2018-12-06T18:07:01.659Z,51.40
2018-12-06T18:12:28.823Z,52.10
2018-12-06T18:14:58.925Z,52.20
2018-12-06T18:17:31.086Z,52.00
2018-12-06T18:19:59.411Z,52.10
2018-12-06T18:22:27.731Z,52.00
2018-12-06T18:24:56.594Z,52.00
2018-12-06T18:30:25.673Z,51.90
2018-12-06T18:32:59.427Z,51.70
2018-12-06T18:38:08.764Z,52.10
2018-12-06T18:40:37.103Z,52.10
2018-12-06T18:43:05.354Z,51.80
2018-12-06T18:48:33.524Z,52.00
2018-12-06T18:51:05.852Z,52.30
2018-12-06T18:53:38.188Z,52.50
2018-12-06T18:56:13.329Z,52.50
2018-12-06T18:58:47.625Z,52.20
2018-12-06T19:01:15.998Z,52.00
2018-12-06T19:03:44.273Z,51.70
2018-12-06T19:09:08.330Z,51.70
2018-12-06T19:11:42.232Z,51.80
2018-12-06T19:14:21.943Z,51.70
2018-12-06T19:16:52.773Z,51.50
2018-12-06T19:19:27.255Z,51.40
2018-12-06T19:21:55.913Z,51.70
2018-12-06T19:24:34.420Z,52.10
2018-12-06T19:27:08.433Z,52.30
2018-12-06T19:29:44.515Z,53.00
2018-12-06T19:32:19.424Z,54.10
2018-12-06T19:34:50.937Z,54.90
2018-12-06T19:37:25.928Z,54.50
2018-12-06T19:39:59.944Z,54.30
2018-12-06T19:42:38.536Z,53.90
2018-12-06T19:45:06.014Z,53.60
2018-12-06T19:47:41.237Z,53.30
2018-12-06T19:50:15.578Z,53.90
2018-12-06T19:52:47.804Z,54.30
2018-12-06T20:01:08.688Z,54.00
2018-12-06T20:03:37.016Z,54.40
2018-12-06T20:09:05.163Z,55.10
2018-12-06T20:11:34.211Z,55.10
2018-12-06T20:14:02.656Z,55.00
2018-12-06T20:19:31.301Z,54.60
2018-12-06T20:21:59.632Z,54.40
2018-12-06T20:24:28.179Z,54.10
2018-12-06T20:29:50.223Z,55.10
2018-12-06T20:32:18.656Z,55.70
2018-12-06T20:34:47.279Z,55.70
2018-12-06T20:54:45.824Z,56.60
2018-12-06T20:57:18.267Z,55.50
2018-12-06T20:59:52.744Z,54.90
2018-12-06T21:02:27.434Z,54.40
2018-12-06T21:05:01.409Z,54.10
2018-12-06T21:07:33.432Z,53.60
2018-12-06T21:10:05.526Z,53.20
2018-12-06T21:12:40.127Z,53.40
2018-12-06T21:15:12.242Z,53.40
2018-12-06T21:17:47.373Z,52.90
2018-12-06T21:20:19.814Z,52.40
2018-12-06T21:22:52.128Z,52.20
2018-12-06T21:25:26.143Z,51.90
2018-12-06T21:27:57.904Z,52.30
2018-12-06T21:33:30.362Z,53.00
2018-12-06T21:36:00.453Z,53.60
2018-12-06T21:38:33.655Z,53.50
2018-12-06T21:41:07.607Z,53.20
2018-12-06T21:43:39.241Z,53.30
2018-12-06T21:46:11.661Z,53.30
2018-12-06T21:48:43.654Z,53.10
2018-12-06T21:51:13.732Z,53.30
2018-12-06T21:53:48.292Z,53.50
2018-12-06T21:56:22.816Z,53.30
2018-12-06T21:58:57.174Z,53.10
2018-12-06T22:01:29.422Z,52.60
2018-12-06T22:04:07.284Z,52.70
2018-12-06T22:52:14.469Z,52.60
2018-12-06T22:54:43.319Z,52.50
2018-12-06T23:00:05.841Z,52.90
2018-12-06T23:02:34.927Z,53.60
2018-12-06T23:05:03.399Z,53.30
2018-12-06T23:07:35.385Z,52.90
2018-12-06T23:10:10.427Z,53.30
2018-12-06T23:12:40.046Z,53.60
2018-12-06T23:15:12.221Z,54.20
2018-12-06T23:17:46.661Z,54.70
2018-12-06T23:20:16.600Z,55.20
2018-12-06T23:22:50.498Z,55.30
2018-12-06T23:25:22.385Z,56.40
2018-12-06T23:27:50.768Z,56.30
2018-12-06T23:30:19.387Z,56.50
2018-12-06T23:32:47.826Z,56.10
2018-12-06T23:35:16.076Z,56.50
2018-12-06T23:40:45.545Z,56.30
2018-12-06T23:43:13.784Z,57.00
2018-12-06T23:45:42.375Z,56.80
2018-12-06T23:51:22.687Z,56.60
2018-12-06T23:53:51.037Z,56.80
2018-12-06T23:56:19.962Z,56.50
